createdAt,value
2019-02-18T00:01:55.052Z,74.00
2019-02-18T00:04:25.583Z,73.90
2019-02-18T00:06:56.397Z,74.10
2019-02-18T00:09:26.874Z,74.60
2019-02-18T00:11:57.734Z,74.50
2019-02-18T00:14:28.481Z,73.70
2019-02-18T00:16:58.919Z,73.80
2019-02-18T00:19:29.733Z,74.00
2019-02-18T00:22:00.165Z,74.70
2019-02-18T00:24:31.017Z,75.10
2019-02-18T00:27:01.745Z,75.00
2019-02-18T00:29:32.464Z,75.20
2019-02-18T00:32:02.904Z,74.80
2019-02-18T00:34:33.645Z,75.00
2019-02-18T00:37:05.028Z,75.20
2019-02-18T00:39:35.504Z,75.10
2019-02-18T00:42:05.984Z,75.20
2019-02-18T00:44:36.421Z,75.10
2019-02-18T00:47:06.884Z,75.50
2019-02-18T00:49:37.336Z,75.30
2019-02-18T00:52:07.795Z,75.40
2019-02-18T00:54:38.270Z,75.80
2019-02-18T00:57:08.712Z,75.90
2019-02-18T00:59:39.176Z,75.80
2019-02-18T01:02:09.882Z,76.80
2019-02-18T01:04:40.316Z,76.00
2019-02-18T01:07:10.777Z,75.70
2019-02-18T01:09:41.284Z,75.80
2019-02-18T01:12:12.024Z,76.10
2019-02-18T01:14:42.467Z,76.30
2019-02-18T01:17:12.909Z,76.10
2019-02-18T01:19:43.345Z,76.20
2019-02-18T01:22:13.886Z,76.00
2019-02-18T01:24:44.654Z,76.10
2019-02-18T01:27:15.084Z,76.90
2019-02-18T01:29:45.511Z,76.50
2019-02-18T01:32:15.968Z,76.10
2019-02-18T01:34:46.518Z,75.80
2019-02-18T01:37:16.973Z,75.20
2019-02-18T01:39:47.432Z,75.80
2019-02-18T01:42:17.912Z,76.50
2019-02-18T01:44:48.756Z,77.00
2019-02-18T01:47:19.206Z,77.00
2019-02-18T01:49:50.981Z,76.80
2019-02-18T01:52:21.452Z,77.00
2019-02-18T01:54:51.898Z,77.00
2019-02-18T01:57:22.367Z,77.70
2019-02-18T01:59:52.833Z,77.00
2019-02-18T02:02:23.640Z,77.20
2019-02-18T02:04:54.113Z,77.00
2019-02-18T02:07:24.614Z,77.40
2019-02-18T02:09:55.037Z,78.20
2019-02-18T02:12:25.873Z,77.90
2019-02-18T02:14:56.294Z,77.50
2019-02-18T02:17:27.737Z,77.80
2019-02-18T02:19:58.196Z,77.60
2019-02-18T02:22:28.931Z,77.60
2019-02-18T02:24:59.349Z,78.20
2019-02-18T02:27:29.776Z,77.60
2019-02-18T02:30:00.483Z,77.30
2019-02-18T02:32:30.987Z,78.00
2019-02-18T02:35:01.410Z,78.90
2019-02-18T02:37:31.865Z,78.00
2019-02-18T02:40:02.357Z,78.30
2019-02-18T02:42:32.910Z,78.60
2019-02-18T02:45:03.640Z,78.60
2019-02-18T02:47:34.088Z,78.90
2019-02-18T02:50:04.552Z,78.80
2019-02-18T02:52:35.017Z,78.90
2019-02-18T02:55:05.899Z,79.10
2019-02-18T02:57:36.365Z,79.10
2019-02-18T03:00:08.494Z,79.50
2019-02-18T03:02:39.016Z,79.80
2019-02-18T03:05:09.484Z,78.80
2019-02-18T03:07:40.005Z,78.30
2019-02-18T03:10:10.582Z,78.30
2019-02-18T03:12:41.046Z,78.30
2019-02-18T03:15:11.525Z,78.60
2019-02-18T03:17:41.988Z,79.20
2019-02-18T03:20:12.858Z,79.20
2019-02-18T03:22:43.303Z,79.10
2019-02-18T03:25:24.228Z,79.30
2019-02-18T03:27:58.195Z,79.70
2019-02-18T03:30:49.642Z,80.00
2019-02-18T03:33:23.860Z,79.60
2019-02-18T03:35:54.551Z,79.40
2019-02-18T03:38:31.621Z,79.30
2019-02-18T03:41:03.301Z,79.40
2019-02-18T03:43:29.908Z,79.20
2019-02-18T03:46:00.382Z,79.20
2019-02-18T03:48:30.809Z,79.30
2019-02-18T03:51:01.250Z,79.50
2019-02-18T03:53:31.688Z,79.80
2019-02-18T03:56:02.441Z,79.50
2019-02-18T03:58:32.888Z,79.30
2019-02-18T04:01:03.438Z,79.50
2019-02-18T04:03:34.217Z,79.40
2019-02-18T04:06:04.706Z,79.40
2019-02-18T04:08:42.422Z,79.30
2019-02-18T04:11:07.320Z,79.40
2019-02-18T04:13:37.768Z,79.70
2019-02-18T04:16:08.225Z,79.70
2019-02-18T04:18:38.747Z,79.50
2019-02-18T04:21:09.169Z,79.70
2019-02-18T04:23:40.269Z,79.50
2019-02-18T04:26:10.733Z,79.70
2019-02-18T04:28:41.164Z,79.80
2019-02-18T04:31:11.972Z,80.20
2019-02-18T04:33:42.452Z,81.30
2019-02-18T04:36:12.928Z,80.70
2019-02-18T04:38:53.629Z,80.40
2019-02-18T04:41:15.517Z,80.10
2019-02-18T04:43:45.958Z,80.00
2019-02-18T04:46:16.486Z,80.40
2019-02-18T04:48:46.951Z,80.40
2019-02-18T04:51:17.412Z,81.00
2019-02-18T04:53:48.113Z,80.70
2019-02-18T04:56:18.573Z,81.20
2019-02-18T04:58:49.043Z,81.00
2019-02-18T05:01:19.628Z,80.70
2019-02-18T05:03:50.166Z,80.70
2019-02-18T05:06:20.648Z,80.50
2019-02-18T05:08:51.118Z,79.60
2019-02-18T05:11:22.209Z,79.70
2019-02-18T05:13:52.710Z,79.70
2019-02-18T05:16:23.153Z,79.80
2019-02-18T05:18:53.658Z,79.90
2019-02-18T05:21:24.210Z,80.00
2019-02-18T05:23:54.645Z,80.30
2019-02-18T05:26:25.141Z,80.30
2019-02-18T05:28:55.660Z,80.10
2019-02-18T05:31:26.985Z,80.40
2019-02-18T05:33:57.749Z,80.10
2019-02-18T05:36:28.245Z,80.20
2019-02-18T05:38:59.129Z,81.00
2019-02-18T05:41:31.181Z,80.10
2019-02-18T05:44:02.312Z,79.80
2019-02-18T05:46:32.757Z,79.70
2019-02-18T05:49:03.858Z,79.70
2019-02-18T05:51:34.333Z,79.70
2019-02-18T05:54:04.849Z,79.40
2019-02-18T05:56:35.314Z,79.70
2019-02-18T05:59:05.802Z,79.80
2019-02-18T06:01:36.373Z,79.80
2019-02-18T06:04:06.842Z,80.80
2019-02-18T06:06:37.306Z,81.20
2019-02-18T06:09:07.881Z,79.70
2019-02-18T06:11:41.945Z,79.60
2019-02-18T06:14:12.705Z,79.90
2019-02-18T06:16:43.508Z,80.00
2019-02-18T06:19:13.970Z,80.00
2019-02-18T06:21:44.457Z,80.60
2019-02-18T06:24:14.917Z,80.60
2019-02-18T06:26:46.436Z,80.60
2019-02-18T06:29:16.946Z,80.40
2019-02-18T06:31:47.421Z,80.40
2019-02-18T06:34:17.943Z,80.20
2019-02-18T06:36:48.450Z,80.80
2019-02-18T06:39:19.297Z,81.10
2019-02-18T06:41:49.741Z,81.20
2019-02-18T06:44:25.958Z,81.40
2019-02-18T06:47:01.653Z,81.50
2019-02-18T06:49:33.139Z,81.70
2019-02-18T06:52:03.845Z,81.80
2019-02-18T06:54:34.296Z,82.20
2019-02-18T06:57:39.100Z,82.10
2019-02-18T07:00:29.230Z,82.20
2019-02-18T07:03:24.514Z,82.30
2019-02-18T07:06:08.357Z,82.40
2019-02-18T07:08:52.723Z,82.60
2019-02-18T07:11:33.028Z,82.60
2019-02-18T07:14:03.478Z,82.70
2019-02-18T07:16:33.916Z,82.90
2019-02-18T07:19:04.353Z,83.30
2019-02-18T07:21:34.807Z,83.50
2019-02-18T07:24:05.717Z,83.50
2019-02-18T07:26:36.149Z,83.30
2019-02-18T07:29:06.580Z,83.30
2019-02-18T07:31:37.012Z,83.20
2019-02-18T07:34:07.456Z,83.20
2019-02-18T07:36:37.889Z,83.20
2019-02-18T07:39:08.653Z,83.10
2019-02-18T07:41:39.080Z,83.40
2019-02-18T07:44:09.522Z,84.10
2019-02-18T07:46:39.972Z,83.70
2019-02-18T07:49:10.416Z,83.40
2019-02-18T07:51:40.951Z,83.10
2019-02-18T07:54:11.681Z,83.00
2019-02-18T07:56:42.138Z,82.80
2019-02-18T07:59:12.578Z,82.30
2019-02-18T08:01:43.682Z,82.00
2019-02-18T08:04:14.422Z,81.70
2019-02-18T08:06:44.877Z,81.40
2019-02-18T08:09:15.672Z,81.20
2019-02-18T08:11:46.673Z,80.70
2019-02-18T08:14:17.106Z,80.50
2019-02-18T08:16:47.564Z,79.80
2019-02-18T08:19:18.019Z,79.40
2019-02-18T08:21:48.458Z,78.80
2019-02-18T08:24:18.892Z,78.30
2019-02-18T08:26:49.350Z,78.00
2019-02-18T08:29:19.845Z,77.90
2019-02-18T08:31:50.281Z,77.30
2019-02-18T08:34:21.068Z,76.80
2019-02-18T08:36:51.786Z,77.20
2019-02-18T08:39:22.525Z,77.30
2019-02-18T08:41:53.274Z,75.60
2019-02-18T08:44:23.705Z,76.20
2019-02-18T08:46:54.544Z,75.40
2019-02-18T08:49:25.053Z,75.20
2019-02-18T08:51:55.479Z,74.30
2019-02-18T08:54:25.922Z,73.50
2019-02-18T08:56:56.337Z,72.90
2019-02-18T08:59:26.780Z,72.20
2019-02-18T09:01:57.225Z,73.10
2019-02-18T09:04:28.223Z,70.90
2019-02-18T09:06:58.823Z,72.10
2019-02-18T09:09:29.341Z,70.80
2019-02-18T09:12:00.133Z,68.30
2019-02-18T09:14:30.548Z,67.30
2019-02-18T09:17:00.998Z,66.60
2019-02-18T09:19:31.517Z,66.50
2019-02-18T09:22:21.018Z,65.40
2019-02-18T09:25:06.361Z,63.50
2019-02-18T09:27:36.793Z,63.00
2019-02-18T09:30:07.404Z,61.90
2019-02-18T09:32:38.149Z,61.40
2019-02-18T09:35:08.569Z,60.70
2019-02-18T09:37:39.013Z,59.70
2019-02-18T09:40:10.454Z,60.40
2019-02-18T09:42:41.296Z,60.60
2019-02-18T09:45:14.546Z,59.10
2019-02-18T09:47:44.157Z,60.30
2019-02-18T09:50:15.593Z,59.50
2019-02-18T09:52:46.049Z,59.60
2019-02-18T09:55:16.472Z,59.20
2019-02-18T09:57:46.916Z,58.80
2019-02-18T10:00:17.698Z,58.10
2019-02-18T10:02:48.120Z,59.20
2019-02-18T10:05:18.580Z,57.90
2019-02-18T10:07:49.133Z,57.60
2019-02-18T10:10:19.562Z,57.50
2019-02-18T10:12:50.048Z,56.10
2019-02-18T10:15:20.557Z,55.40
2019-02-18T10:17:51.041Z,56.50
2019-02-18T10:20:21.487Z,56.60
2019-02-18T10:22:51.924Z,56.60
2019-02-18T10:25:22.442Z,56.90
2019-02-18T10:27:52.892Z,55.80
2019-02-18T10:30:23.347Z,55.80
2019-02-18T10:32:53.773Z,56.20
2019-02-18T10:35:26.447Z,55.40
2019-02-18T10:37:56.394Z,53.90
2019-02-18T10:40:26.855Z,53.70
2019-02-18T10:42:57.348Z,53.00
2019-02-18T10:45:27.808Z,52.50
2019-02-18T10:47:59.656Z,51.90
2019-02-18T10:50:30.100Z,51.50
2019-02-18T10:53:00.945Z,50.90
2019-02-18T10:55:31.821Z,50.60
2019-02-18T10:58:02.729Z,49.80
2019-02-18T11:00:33.707Z,47.10
2019-02-18T11:03:04.341Z,47.10
2019-02-18T11:05:35.182Z,44.90
2019-02-18T11:08:05.889Z,44.00
2019-02-18T11:10:36.330Z,42.10
2019-02-18T11:13:06.799Z,40.20
2019-02-18T11:15:37.249Z,39.70
2019-02-18T11:18:07.743Z,37.60
2019-02-18T11:20:38.207Z,36.10
2019-02-18T11:23:08.785Z,35.70
2019-02-18T11:25:39.416Z,35.40
2019-02-18T11:28:09.993Z,34.40
2019-02-18T11:30:40.473Z,34.10
2019-02-18T11:33:11.235Z,32.00
2019-02-18T11:35:41.801Z,32.90
2019-02-18T11:38:12.327Z,31.80
2019-02-18T11:40:42.813Z,30.80
2019-02-18T11:43:13.625Z,29.50
2019-02-18T11:45:44.084Z,29.70
2019-02-18T11:48:14.550Z,30.00
2019-02-18T11:50:45.030Z,29.40
2019-02-18T11:53:15.616Z,29.90
2019-02-18T11:55:46.175Z,30.50
2019-02-18T11:58:16.662Z,30.10
2019-02-18T12:00:47.137Z,30.40
2019-02-18T12:03:17.682Z,29.90
2019-02-18T12:05:48.822Z,28.70
2019-02-18T12:08:19.377Z,29.40
2019-02-18T12:10:49.905Z,29.00
2019-02-18T12:13:20.446Z,28.40
2019-02-18T12:15:50.958Z,28.40
2019-02-18T12:18:21.440Z,28.80
2019-02-18T12:20:51.897Z,28.00
2019-02-18T12:23:22.366Z,28.00
2019-02-18T12:25:52.839Z,28.40
2019-02-18T12:28:23.313Z,27.10
2019-02-18T12:30:53.866Z,27.30
2019-02-18T12:33:25.824Z,27.70
2019-02-18T12:35:57.186Z,27.80
2019-02-18T12:38:27.654Z,28.50
2019-02-18T12:40:58.122Z,27.60
2019-02-18T12:43:29.394Z,27.30
2019-02-18T12:46:00.043Z,27.60
2019-02-18T12:48:30.572Z,26.70
2019-02-18T12:51:01.042Z,27.50
2019-02-18T12:53:31.500Z,27.10
2019-02-18T12:56:02.291Z,27.60
2019-02-18T12:58:33.011Z,27.50
2019-02-18T13:01:05.281Z,26.50
2019-02-18T13:03:36.087Z,26.50
2019-02-18T13:06:06.917Z,26.00
2019-02-18T13:08:38.509Z,25.80
2019-02-18T13:11:09.009Z,26.50
2019-02-18T13:13:39.566Z,25.60
2019-02-18T13:16:10.022Z,26.40
2019-02-18T13:18:40.540Z,25.00
2019-02-18T13:21:11.012Z,25.70
2019-02-18T13:23:41.464Z,26.00
2019-02-18T13:26:11.962Z,25.70
2019-02-18T13:28:43.501Z,24.90
2019-02-18T13:31:14.913Z,24.70
2019-02-18T13:33:45.394Z,24.60
2019-02-18T13:36:16.137Z,24.70
2019-02-18T13:38:46.706Z,24.90
2019-02-18T13:41:17.185Z,25.00
2019-02-18T13:43:47.785Z,24.80
2019-02-18T13:46:18.270Z,23.90
2019-02-18T13:48:48.757Z,24.50
2019-02-18T13:51:24.234Z,24.50
2019-02-18T13:53:51.767Z,24.50
2019-02-18T13:56:22.275Z,24.60
2019-02-18T13:58:53.200Z,24.80
2019-02-18T14:01:23.679Z,24.60
2019-02-18T14:03:54.170Z,25.20
2019-02-18T14:06:24.635Z,26.20
2019-02-18T14:08:55.109Z,25.60
2019-02-18T14:11:25.628Z,25.70
2019-02-18T14:13:56.094Z,26.20
2019-02-18T14:16:26.621Z,27.00
2019-02-18T14:18:57.601Z,27.30
2019-02-18T14:21:28.397Z,28.10
2019-02-18T14:23:59.849Z,29.20
2019-02-18T14:26:30.767Z,30.00
2019-02-18T14:29:01.286Z,30.60
2019-02-18T14:31:31.773Z,32.00
2019-02-18T14:34:02.748Z,32.20
2019-02-18T14:36:33.600Z,33.40
2019-02-18T14:39:05.173Z,34.10
2019-02-18T14:41:39.540Z,34.20
2019-02-18T14:44:10.325Z,35.60
2019-02-18T14:46:40.802Z,36.20
2019-02-18T14:49:11.353Z,37.30
2019-02-18T14:51:42.571Z,37.30
2019-02-18T14:54:14.707Z,36.60
2019-02-18T14:56:45.168Z,38.40
2019-02-18T14:59:15.991Z,38.30
2019-02-18T15:01:46.550Z,37.70
2019-02-18T15:04:17.310Z,38.30
2019-02-18T15:06:47.855Z,40.00
2019-02-18T15:09:18.770Z,38.90
2019-02-18T15:11:49.201Z,40.60
2019-02-18T15:14:19.671Z,39.70
2019-02-18T15:16:50.496Z,39.70
2019-02-18T15:19:21.073Z,39.90
2019-02-18T15:21:51.528Z,39.80
2019-02-18T15:24:22.001Z,40.40
2019-02-18T15:26:52.461Z,41.00
2019-02-18T15:29:22.923Z,40.60
2019-02-18T15:31:54.013Z,39.60
2019-02-18T15:34:24.477Z,39.60
2019-02-18T15:36:54.959Z,40.60
2019-02-18T15:39:25.405Z,41.60
2019-02-18T15:41:56.122Z,41.30
2019-02-18T15:44:26.982Z,40.90
2019-02-18T15:46:57.446Z,39.90
2019-02-18T15:49:28.974Z,39.50
2019-02-18T15:51:59.574Z,39.60
2019-02-18T15:54:30.114Z,39.30
2019-02-18T15:57:00.571Z,39.10
2019-02-18T15:59:31.061Z,39.40
2019-02-18T16:02:01.543Z,39.80
2019-02-18T16:04:32.005Z,39.60
2019-02-18T16:07:02.459Z,39.70
2019-02-18T16:09:32.936Z,39.80
2019-02-18T16:12:03.670Z,39.50
2019-02-18T16:14:34.131Z,39.30
2019-02-18T16:17:04.605Z,39.70
2019-02-18T16:19:35.481Z,41.00
2019-02-18T16:22:06.041Z,40.90
2019-02-18T16:24:36.645Z,40.80
2019-02-18T16:27:07.288Z,41.10
2019-02-18T16:29:37.781Z,41.10
2019-02-18T16:32:08.236Z,41.10
2019-02-18T16:34:38.786Z,42.00
2019-02-18T16:37:11.475Z,42.50
2019-02-18T16:39:42.172Z,43.00
2019-02-18T16:42:13.009Z,43.90
2019-02-18T16:44:43.497Z,43.70
2019-02-18T16:47:14.030Z,44.10
2019-02-18T16:49:44.516Z,46.00
2019-02-18T16:52:15.569Z,45.60
2019-02-18T16:54:46.033Z,46.20
2019-02-18T16:57:16.501Z,46.80
2019-02-18T16:59:46.990Z,47.20
2019-02-18T17:02:17.473Z,48.30
2019-02-18T17:04:48.371Z,48.20
2019-02-18T17:07:19.225Z,48.20
2019-02-18T17:09:49.735Z,48.80
2019-02-18T17:12:20.579Z,49.00
2019-02-18T17:14:51.071Z,49.30
2019-02-18T17:17:21.608Z,49.40
2019-02-18T17:19:52.092Z,50.10
2019-02-18T17:22:22.556Z,50.40
2019-02-18T17:24:53.017Z,50.50
2019-02-18T17:27:23.509Z,51.00
2019-02-18T17:29:53.986Z,51.20
2019-02-18T17:32:24.854Z,51.60
2019-02-18T17:34:55.348Z,51.80
2019-02-18T17:37:25.803Z,52.00
2019-02-18T17:39:56.296Z,52.30
2019-02-18T17:42:26.791Z,52.90
2019-02-18T17:44:57.285Z,52.40
2019-02-18T17:47:27.776Z,52.00
2019-02-18T17:49:58.242Z,51.60
2019-02-18T17:52:28.730Z,51.50
2019-02-18T17:54:59.293Z,52.00
2019-02-18T17:57:29.748Z,52.00
2019-02-18T18:00:00.627Z,52.10
2019-02-18T18:02:31.159Z,53.30
2019-02-18T18:05:01.614Z,54.30
2019-02-18T18:07:33.080Z,54.30
2019-02-18T18:10:03.592Z,53.90
2019-02-18T18:12:34.441Z,54.40
2019-02-18T18:15:05.584Z,54.60
2019-02-18T18:17:36.056Z,54.80
2019-02-18T18:20:06.888Z,54.80
2019-02-18T18:22:37.336Z,55.10
2019-02-18T18:25:07.875Z,55.40
2019-02-18T18:27:38.624Z,55.50
2019-02-18T18:30:10.657Z,55.70
2019-02-18T18:32:41.133Z,56.00
2019-02-18T18:35:11.741Z,56.90
2019-02-18T18:37:42.242Z,57.30
2019-02-18T18:40:13.600Z,56.80
2019-02-18T18:42:44.133Z,56.80
2019-02-18T18:45:15.736Z,57.20
2019-02-18T18:47:46.446Z,57.60
2019-02-18T18:50:17.841Z,57.60
2019-02-18T18:52:48.833Z,57.60
2019-02-18T18:55:23.475Z,58.10
2019-02-18T18:57:53.184Z,58.20
2019-02-18T19:00:24.471Z,59.20
2019-02-18T19:02:55.845Z,58.70
2019-02-18T19:05:26.777Z,59.20
2019-02-18T19:07:57.733Z,59.70
2019-02-18T19:10:28.219Z,60.30
2019-02-18T19:12:59.074Z,60.50
2019-02-18T19:15:29.565Z,60.00
2019-02-18T19:18:00.601Z,60.70
2019-02-18T19:20:31.316Z,60.50
2019-02-18T19:23:01.769Z,60.70
2019-02-18T19:25:32.239Z,62.20
2019-02-18T19:28:02.732Z,61.40
2019-02-18T19:30:33.405Z,61.50
2019-02-18T19:33:05.590Z,61.40
2019-02-18T19:35:41.666Z,61.50
2019-02-18T19:38:13.141Z,61.60
2019-02-18T19:40:47.540Z,61.70
2019-02-18T19:43:18.076Z,61.70
2019-02-18T19:45:52.336Z,61.50
2019-02-18T19:48:22.960Z,61.60
2019-02-18T19:50:53.756Z,62.00
2019-02-18T19:53:25.141Z,61.60
2019-02-18T19:55:57.048Z,61.60
2019-02-18T19:58:27.612Z,61.50
2019-02-18T20:00:58.169Z,61.10
2019-02-18T20:04:08.396Z,61.30
2019-02-18T20:06:42.769Z,63.30
2019-02-18T20:12:59.614Z,62.90
2019-02-18T20:15:30.726Z,62.20
2019-02-18T20:18:08.172Z,62.30
2019-02-18T20:20:50.420Z,62.80
2019-02-18T20:23:21.072Z,62.80
2019-02-18T20:25:51.581Z,63.20
2019-02-18T20:28:22.080Z,63.20
2019-02-18T20:30:52.552Z,63.20
2019-02-18T20:33:23.045Z,63.50
2019-02-18T20:35:53.531Z,64.10
2019-02-18T20:38:24.372Z,64.40
2019-02-18T20:40:55.181Z,64.80
2019-02-18T20:43:25.952Z,65.10
2019-02-18T20:45:56.414Z,65.10
2019-02-18T20:48:27.544Z,66.10
2019-02-18T20:50:58.016Z,65.60
2019-02-18T20:53:28.524Z,65.60
2019-02-18T20:55:59.291Z,65.90
2019-02-18T20:58:30.877Z,66.40
2019-02-18T21:01:02.033Z,66.90
2019-02-18T21:03:32.626Z,67.40
2019-02-18T21:06:03.549Z,67.20
2019-02-18T21:08:33.998Z,67.20
2019-02-18T21:11:04.468Z,67.20
2019-02-18T21:13:35.012Z,67.00
2019-02-18T21:16:05.477Z,66.90
2019-02-18T21:18:35.965Z,66.90
2019-02-18T21:21:06.439Z,66.30
2019-02-18T21:23:37.840Z,66.20
2019-02-18T21:26:08.312Z,65.80
2019-02-18T21:28:39.153Z,65.80
2019-02-18T21:31:09.648Z,66.10
2019-02-18T21:33:40.525Z,65.70
2019-02-18T21:36:11.022Z,65.20
2019-02-18T21:38:42.129Z,65.80
2019-02-18T21:41:12.862Z,66.10
2019-02-18T21:43:43.712Z,65.50
2019-02-18T21:46:26.365Z,65.20
2019-02-18T21:48:58.589Z,64.70
2019-02-18T21:51:29.429Z,65.70
2019-02-18T21:53:59.896Z,65.20
2019-02-18T21:56:30.350Z,65.00
2019-02-18T21:59:00.830Z,65.10
2019-02-18T22:01:31.396Z,64.80
2019-02-18T22:04:01.885Z,65.10
2019-02-18T22:06:32.345Z,64.90
2019-02-18T22:09:04.369Z,64.80
2019-02-18T22:11:34.936Z,65.10
2019-02-18T22:14:05.406Z,65.10
2019-02-18T22:16:35.872Z,65.20
2019-02-18T22:19:07.326Z,65.40
2019-02-18T22:21:37.789Z,65.60
2019-02-18T22:24:08.232Z,66.10
2019-02-18T22:26:38.712Z,66.90
2019-02-18T22:29:09.202Z,67.20
2019-02-18T22:31:39.644Z,67.60
2019-02-18T22:34:10.397Z,68.10
2019-02-18T22:36:40.882Z,68.60
2019-02-18T22:39:11.668Z,69.30
2019-02-18T22:41:42.125Z,69.80
2019-02-18T22:44:12.617Z,70.10
2019-02-18T22:46:43.442Z,70.30
2019-02-18T22:49:13.892Z,70.80
2019-02-18T22:51:44.390Z,70.80
2019-02-18T22:54:16.486Z,71.10
2019-02-18T22:56:47.016Z,71.10
2019-02-18T22:59:17.458Z,71.20
2019-02-18T23:01:48.857Z,71.50
2019-02-18T23:04:19.357Z,71.50
2019-02-18T23:06:49.845Z,71.50
2019-02-18T23:09:20.706Z,71.60
2019-02-18T23:11:51.478Z,71.90
2019-02-18T23:14:24.105Z,71.70
2019-02-18T23:16:54.561Z,71.80
2019-02-18T23:19:25.021Z,72.50
2019-02-18T23:21:55.464Z,72.10
2019-02-18T23:24:26.197Z,72.60
2019-02-18T23:26:56.676Z,72.80
2019-02-18T23:29:27.524Z,73.30
2019-02-18T23:31:57.956Z,72.50
2019-02-18T23:34:28.420Z,72.40
2019-02-18T23:36:58.912Z,73.20
2019-02-18T23:39:29.381Z,72.90
2019-02-18T23:41:59.834Z,72.70
2019-02-18T23:44:30.404Z,72.60
2019-02-18T23:47:00.866Z,72.50
2019-02-18T23:49:31.300Z,72.70
2019-02-18T23:52:01.752Z,72.60
2019-02-18T23:54:32.546Z,73.50
2019-02-18T23:57:03.123Z,72.90
2019-02-18T23:59:33.676Z,72.90
